Time;durP1;ratioP1;P1;durP2;ratioP2;P2;SDS_P1;SDS_P2;PMS_P1;PMS_P2;Temp;Humidity;BMP_temperature;BMP_pressure;BME280_temperature;BME280_humidity;BME280_pressure;Samples;Min_cycle;Max_cycle;Signal;HPM_P1;HPM_P2
2022/08/30 00:01:26;;;;;;;17.95;10.32;;;;;;;14.96;93.01;102047.91;5073798;28;20024;-75
2022/08/30 00:03:53;;;;;;;20.17;10.60;;;;;;;15.03;93.41;102058.75;5073428;28;20028;-74
2022/08/30 00:06:20;;;;;;;17.95;10.38;;;;;;;15.05;93.22;102062.13;5073400;28;20036;-74
2022/08/30 00:08:47;;;;;;;17.13;9.82;;;;;;;15.05;93.11;102054.31;5073445;28;20035;-74
2022/08/30 00:11:17;;;;;;;16.75;10.15;;;;;;;14.93;93.02;102035.06;5073518;28;20479;-77
2022/08/30 00:13:43;;;;;;;16.98;10.15;;;;;;;15.03;93.19;102049.16;5073685;28;20024;-74
2022/08/30 00:16:11;;;;;;;18.92;9.43;;;;;;;14.99;93.57;102052.06;5073338;28;20060;-74
2022/08/30 00:18:37;;;;;;;23.40;11.38;;;;;;;14.93;93.73;102043.72;5073252;28;20086;-74
2022/08/30 00:21:03;;;;;;;16.15;10.32;;;;;;;14.87;94.08;102046.72;5073362;28;20021;-74
2022/08/30 00:23:29;;;;;;;14.57;9.88;;;;;;;14.88;94.35;102052.75;5073289;28;20234;-74
2022/08/30 00:25:54;;;;;;;15.88;9.70;;;;;;;14.83;94.51;102049.56;5073583;28;20079;-75
2022/08/30 00:28:19;;;;;;;19.75;10.05;;;;;;;14.79;94.66;102053.31;5073421;28;20020;-74
2022/08/30 00:30:46;;;;;;;14.88;10.13;;;;;;;14.77;95.06;102053.41;5073215;28;20506;-74
2022/08/30 00:33:13;;;;;;;16.35;10.32;;;;;;;14.68;95.33;102048.75;5073283;28;20388;-74
2022/08/30 00:35:38;;;;;;;15.82;10.23;;;;;;;14.67;95.50;102043.66;5072906;28;20021;-74
2022/08/30 00:38:05;;;;;;;16.55;10.73;;;;;;;14.64;95.96;102045.50;5072950;28;20035;-74
2022/08/30 00:40:31;;;;;;;16.50;10.27;;;;;;;14.59;95.96;102052.75;5073125;28;20025;-74
2022/08/30 00:42:58;;;;;;;18.27;10.18;;;;;;;14.49;95.20;102049.03;5073148;28;20116;-79
2022/08/30 00:45:30;;;;;;;16.75;11.10;;;;;;;14.47;96.53;102044.84;5073293;28;20114;-78
2022/08/30 00:47:55;;;;;;;18.35;9.95;;;;;;;14.43;96.35;102049.34;5073136;28;20063;-81
2022/08/30 00:50:26;;;;;;;16.63;9.93;;;;;;;14.45;96.94;102057.09;5054812;28;20492;-77
2022/08/30 00:52:55;;;;;;;18.65;10.52;;;;;;;14.44;96.85;102045.81;5072817;28;20396;-80
2022/08/30 00:55:20;;;;;;;19.23;10.80;;;;;;;14.52;97.54;102050.59;5072758;28;20468;-73
2022/08/30 00:57:50;;;;;;;15.88;9.98;;;;;;;14.44;96.57;102040.63;5073108;28;20067;-74
2022/08/30 01:00:16;;;;;;;18.17;10.95;;;;;;;14.48;96.92;102042.16;5072845;28;20032;-74
2022/08/30 01:02:42;;;;;;;17.85;9.82;;;;;;;14.52;96.78;102063.59;5072686;28;20032;-73
2022/08/30 01:05:11;;;;;;;18.88;10.40;;;;;;;14.53;96.90;102055.69;5072576;28;20078;-74
2022/08/30 01:07:38;;;;;;;21.27;11.10;;;;;;;14.57;96.90;102061.56;5072573;28;20376;-75
2022/08/30 01:10:06;;;;;;;18.17;9.43;;;;;;;14.54;96.09;102056.53;5072664;28;20024;-74
2022/08/30 01:12:31;;;;;;;18.35;10.50;;;;;;;14.59;97.04;102065.75;5072580;28;20118;-74
2022/08/30 01:14:58;;;;;;;18.50;10.52;;;;;;;14.61;97.24;102063.88;5072720;28;20028;-74
2022/08/30 01:17:25;;;;;;;18.40;10.50;;;;;;;14.60;96.78;102064.81;5054597;28;20039;-74
2022/08/30 01:19:57;;;;;;;19.23;10.40;;;;;;;14.61;97.27;102069.09;5072508;28;20020;-74
2022/08/30 01:22:36;;;;;;;16.42;10.93;;;;;;;14.64;97.40;102073.25;5072431;28;20119;-73
2022/08/30 01:25:05;;;;;;;16.33;10.75;;;;;;;14.69;97.38;102067.78;5072519;28;20040;-74
2022/08/30 01:27:31;;;;;;;16.88;10.85;;;;;;;14.71;97.20;102071.97;5072522;28;20020;-75
2022/08/30 01:29:57;;;;;;;21.75;11.23;;;;;;;14.71;97.12;102058.97;5072621;28;20471;-80
2022/08/30 01:32:27;;;;;;;17.00;10.68;;;;;;;14.72;96.92;102060.63;5072462;28;20041;-78
2022/08/30 01:34:53;;;;;;;16.85;10.98;;;;;;;14.67;96.69;102046.25;5072206;28;20037;-78
2022/08/30 01:37:24;;;;;;;18.40;10.95;;;;;;;14.84;96.42;102074.66;5072367;28;20038;-79
2022/08/30 01:39:49;;;;;;;16.33;10.55;;;;;;;14.71;96.27;102056.38;5072309;28;20033;-75
2022/08/30 01:42:16;;;;;;;16.92;10.93;;;;;;;14.88;96.30;102068.34;5072522;28;20375;-75
2022/08/30 01:44:43;;;;;;;19.40;11.40;;;;;;;14.87;96.18;102072.72;5054696;28;20450;-75
2022/08/30 01:47:09;;;;;;;17.77;10.68;;;;;;;14.84;96.13;102067.69;5072285;28;20035;-75
2022/08/30 01:49:34;;;;;;;16.63;10.35;;;;;;;14.55;96.21;102017.47;5072169;28;20037;-74
2022/08/30 01:52:00;;;;;;;21.20;10.50;;;;;;;14.64;96.32;102047.25;5071976;28;20025;-75
2022/08/30 01:54:25;;;;;;;17.33;10.93;;;;;;;14.67;96.79;102062.69;5054301;28;20035;-76
2022/08/30 01:56:50;;;;;;;17.35;10.77;;;;;;;14.55;97.01;102053.88;5072271;28;20464;-78
2022/08/30 01:59:16;;;;;;;18.35;10.75;;;;;;;14.47;97.43;102048.28;5072164;28;20016;-81
2022/08/30 02:01:41;;;;;;;23.05;12.00;;;;;;;14.48;98.02;102059.53;5072250;28;20025;-79
2022/08/30 02:04:10;;;;;;;18.52;11.32;;;;;;;14.37;97.99;102044.53;5072081;28;20024;-81
2022/08/30 02:06:37;;;;;;;16.00;11.77;;;;;;;14.39;98.59;102057.44;5054185;28;20349;-81
2022/08/30 02:09:03;;;;;;;21.42;11.95;;;;;;;14.25;98.51;102043.47;5072134;28;20487;-74
2022/08/30 02:11:28;;;;;;;19.98;11.73;;;;;;;14.30;98.54;102056.22;5072275;28;20020;-76
2022/08/30 02:13:54;;;;;;;23.70;11.57;;;;;;;14.26;99.27;102059.94;5072088;28;20097;-74
2022/08/30 02:16:21;;;;;;;18.52;11.57;;;;;;;14.23;99.31;102052.28;5071980;28;20041;-77
2022/08/30 02:18:48;;;;;;;19.70;12.32;;;;;;;14.19;99.58;102056.00;5072008;28;20116;-79
2022/08/30 02:21:13;;;;;;;20.52;13.32;;;;;;;14.15;100.00;102044.94;5071905;28;20025;-74
2022/08/30 02:23:40;;;;;;;16.55;11.63;;;;;;;14.10;99.30;102041.81;5075600;28;20024;-74
2022/08/30 02:26:05;;;;;;;17.85;12.32;;;;;;;14.09;99.98;102047.91;5075642;28;20384;-76
2022/08/30 02:28:30;;;;;;;21.55;12.68;;;;;;;13.99;100.00;102039.00;5075469;28;20025;-75
2022/08/30 02:30:56;;;;;;;19.25;12.75;;;;;;;14.00;100.00;102051.06;5075605;28;20028;-75
2022/08/30 02:33:21;;;;;;;18.25;12.88;;;;;;;14.02;100.00;102051.78;5075364;28;20035;-74
2022/08/30 02:35:47;;;;;;;19.67;13.52;;;;;;;14.01;100.00;102053.56;5074849;28;20025;-74
2022/08/30 02:38:12;;;;;;;18.85;13.40;;;;;;;14.01;100.00;102050.97;5075313;28;20116;-80
2022/08/30 02:40:38;;;;;;;19.02;13.55;;;;;;;14.05;100.00;102049.84;5075351;28;20021;-74
2022/08/30 02:43:04;;;;;;;19.48;13.77;;;;;;;14.07;100.00;102045.41;5075315;28;20025;-74
2022/08/30 02:45:29;;;;;;;20.98;13.35;;;;;;;14.01;100.00;102027.59;5075308;28;20056;-75
2022/08/30 02:47:55;;;;;;;20.60;13.75;;;;;;;14.10;100.00;102043.56;5075347;28;20020;-74
2022/08/30 02:50:21;;;;;;;20.38;13.60;;;;;;;14.05;100.00;102033.41;5074840;28;20131;-80
2022/08/30 02:52:46;;;;;;;20.83;13.20;;;;;;;14.00;100.00;102018.13;5075176;28;20112;-74
2022/08/30 02:55:12;;;;;;;21.92;13.95;;;;;;;14.07;100.00;102040.22;5075099;28;20021;-75
2022/08/30 02:57:37;;;;;;;21.45;14.02;;;;;;;14.02;100.00;102029.25;5075194;28;20143;-74
2022/08/30 03:00:07;;;;;;;21.23;14.48;;;;;;;14.10;100.00;102043.56;5074886;28;20048;-74
2022/08/30 03:02:32;;;;;;;22.95;14.48;;;;;;;14.15;100.00;102031.13;5074719;28;20381;-74
2022/08/30 03:04:57;;;;;;;20.33;14.52;;;;;;;14.07;100.00;102014.25;5074929;28;20016;-74
2022/08/30 03:07:23;;;;;;;22.38;13.90;;;;;;;14.05;100.00;102007.44;5074604;28;20033;-74
2022/08/30 03:09:48;;;;;;;20.80;13.93;;;;;;;14.10;100.00;102018.41;5074839;28;20442;-74
2022/08/30 03:12:14;;;;;;;22.65;15.30;;;;;;;14.07;100.00;102011.66;5074694;28;20035;-74
2022/08/30 03:14:39;;;;;;;22.40;14.77;;;;;;;14.03;100.00;102020.53;5074744;28;20051;-74
2022/08/30 03:17:07;;;;;;;23.52;15.02;;;;;;;13.98;100.00;102030.38;5074434;28;20051;-74
2022/08/30 03:19:35;;;;;;;22.42;14.40;;;;;;;13.94;100.00;102022.81;5074491;28;20029;-74
2022/08/30 03:22:01;;;;;;;21.40;16.17;;;;;;;13.72;100.00;101992.09;5074445;28;20028;-75
2022/08/30 03:24:27;;;;;;;23.23;15.15;;;;;;;13.83;100.00;102000.09;5074794;28;20165;-79
2022/08/30 03:26:52;;;;;;;23.83;14.90;;;;;;;13.86;100.00;102018.06;5074440;28;20095;-74
2022/08/30 03:29:17;;;;;;;22.23;14.63;;;;;;;13.81;100.00;102014.91;5074572;28;20029;-75
2022/08/30 03:31:43;;;;;;;25.30;16.02;;;;;;;13.83;100.00;102030.41;5074193;28;20032;-79
2022/08/30 03:34:09;;;;;;;21.48;15.52;;;;;;;13.69;100.00;102015.63;5073366;28;20024;-74
2022/08/30 03:36:36;;;;;;;24.17;16.45;;;;;;;13.85;100.00;102029.38;5074179;28;20024;-75
2022/08/30 03:39:03;;;;;;;22.08;15.90;;;;;;;13.86;100.00;102031.06;5074039;28;20039;-75
2022/08/30 03:41:29;;;;;;;24.52;15.80;;;;;;;13.69;100.00;102000.88;5074447;28;20025;-74
2022/08/30 03:43:54;;;;;;;23.30;15.88;;;;;;;13.85;100.00;102034.56;5074134;28;20362;-74
2022/08/30 03:46:19;;;;;;;25.90;16.75;;;;;;;13.88;100.00;102036.19;5074002;28;20111;-74
2022/08/30 03:48:45;;;;;;;22.95;17.00;;;;;;;13.85;100.00;102024.19;5073966;28;20056;-78
2022/08/30 03:51:10;;;;;;;30.52;17.48;;;;;;;13.63;100.00;101997.78;5073787;28;20028;-75
2022/08/30 03:53:35;;;;;;;24.30;16.40;;;;;;;13.81;100.00;102030.50;5073744;28;20433;-79
2022/08/30 03:56:02;;;;;;;23.85;17.35;;;;;;;13.79;100.00;102034.94;5056181;28;20033;-74
2022/08/30 03:58:27;;;;;;;30.75;17.70;;;;;;;13.72;100.00;102025.81;5074089;28;20034;-74
2022/08/30 04:00:53;;;;;;;25.88;17.20;;;;;;;13.77;100.00;102021.22;5073480;28;20099;-74
2022/08/30 04:03:24;;;;;;;23.95;16.48;;;;;;;13.77;100.00;102022.06;5073742;28;20024;-74
2022/08/30 04:05:50;;;;;;;23.23;17.17;;;;;;;13.69;100.00;102016.47;5073660;28;20578;-74
2022/08/30 04:08:15;;;;;;;30.17;17.90;;;;;;;13.62;100.00;102011.69;5073465;28;20032;-74
2022/08/30 04:10:40;;;;;;;27.67;18.13;;;;;;;13.72;100.00;102028.41;5073768;28;20025;-74
2022/08/30 04:13:05;;;;;;;24.50;17.77;;;;;;;13.73;100.00;102030.09;5073315;28;20032;-74
2022/08/30 04:15:31;;;;;;;26.13;17.63;;;;;;;13.74;100.00;102031.75;5073547;28;20031;-74
2022/08/30 04:17:56;;;;;;;26.05;18.60;;;;;;;13.66;100.00;102010.59;5073732;28;20078;-75
2022/08/30 04:20:22;;;;;;;25.20;17.88;;;;;;;13.83;100.00;102030.41;5073386;28;20113;-76
2022/08/30 04:22:50;;;;;;;29.35;18.58;;;;;;;13.74;100.00;102017.03;5072945;28;20047;-74
2022/08/30 04:25:16;;;;;;;25.80;19.17;;;;;;;13.88;100.00;102038.78;5073270;28;20107;-75
2022/08/30 04:27:44;;;;;;;27.05;18.58;;;;;;;13.86;100.00;102033.66;5073048;28;20582;-75
2022/08/30 04:30:11;;;;;;;27.90;19.08;;;;;;;13.85;100.00;102037.19;5073187;28;20103;-74
2022/08/30 04:32:37;;;;;;;29.67;19.42;;;;;;;13.84;100.00;102047.66;5054616;28;20078;-74
2022/08/30 04:35:04;;;;;;;28.88;18.65;;;;;;;13.75;100.00;102034.25;5073099;28;20093;-76
2022/08/30 04:37:29;;;;;;;27.50;18.42;;;;;;;13.75;100.00;102044.66;5073054;28;20059;-74
2022/08/30 04:40:01;;;;;;;28.85;19.75;;;;;;;13.68;100.00;102042.50;5072854;28;20032;-75
2022/08/30 04:42:28;;;;;;;;;;;;;;;13.69;100.00;102049.38;5073359;28;20379;-74
2022/08/30 04:44:54;;;;;;;26.73;19.77;;;;;;;13.54;100.00;102029.47;5072721;28;19919;-75
2022/08/30 04:47:19;;;;;;;27.65;18.95;;;;;;;13.53;100.00;102044.19;5072973;28;20029;-80
2022/08/30 04:49:44;;;;;;;28.52;19.80;;;;;;;13.59;100.00;102046.47;5072813;28;20443;-79
2022/08/30 04:52:10;;;;;;;28.77;19.65;;;;;;;13.60;100.00;102045.53;5072718;28;20031;-73
2022/08/30 04:54:35;;;;;;;26.73;19.92;;;;;;;13.62;100.00;102054.06;5072638;28;20020;-74
2022/08/30 04:57:01;;;;;;;27.42;19.67;;;;;;;13.68;100.00;102053.72;5072657;28;20478;-80
2022/08/30 04:59:26;;;;;;;28.48;20.08;;;;;;;13.73;100.00;102063.84;5072780;28;20033;-74
2022/08/30 05:01:51;;;;;;;28.70;20.05;;;;;;;13.80;100.00;102066.94;5072720;28;20028;-81
2022/08/30 05:04:17;;;;;;;29.75;20.45;;;;;;;13.82;100.00;102063.31;5072773;28;20035;-78
2022/08/30 05:06:42;;;;;;;29.45;19.67;;;;;;;13.86;100.00;102067.41;5072672;28;20154;-76
2022/08/30 05:09:07;;;;;;;30.60;21.38;;;;;;;13.77;100.00;102045.44;5072293;28;20107;-77
2022/08/30 05:11:33;;;;;;;28.48;20.73;;;;;;;13.86;100.00;102056.19;5072541;28;20026;-75
2022/08/30 05:13:58;;;;;;;29.30;20.13;;;;;;;13.71;100.00;102026.75;5072812;28;20051;-80
2022/08/30 05:16:23;;;;;;;31.25;20.67;;;;;;;13.84;100.00;102053.69;5054638;28;20029;-76
2022/08/30 05:18:50;;;;;;;27.77;20.85;;;;;;;13.92;100.00;102067.06;5072571;28;20037;-77
2022/08/30 05:21:20;;;;;;;30.63;20.25;;;;;;;13.91;100.00;102062.81;5072614;28;20012;-76
2022/08/30 05:23:47;;;;;;;27.95;19.75;;;;;;;13.93;100.00;102066.13;5072104;28;20456;-75
2022/08/30 05:26:22;;;;;;;28.65;20.48;;;;;;;13.94;100.00;102067.81;5072609;28;20357;-76
2022/08/30 05:28:48;;;;;;;28.42;19.73;;;;;;;13.97;100.00;102064.22;5072469;28;20379;-76
2022/08/30 05:31:25;;;;;;;32.85;20.58;;;;;;;14.00;100.00;102070.06;5072532;28;20100;-76
2022/08/30 05:33:52;;;;;;;31.00;20.17;;;;;;;14.01;100.00;102066.53;5072437;28;20020;-76
2022/08/30 05:36:20;;;;;;;29.15;21.00;;;;;;;14.12;100.00;102078.06;5072318;28;20039;-76
2022/08/30 05:38:46;;;;;;;29.02;19.90;;;;;;;14.10;100.00;102051.34;5072134;28;20096;-77
2022/08/30 05:41:12;;;;;;;28.98;20.80;;;;;;;14.30;100.00;102079.59;5054341;28;20048;-77
2022/08/30 05:43:38;;;;;;;28.27;19.95;;;;;;;14.43;99.68;102077.94;5072464;28;20467;-77
2022/08/30 05:46:08;;;;;;;29.70;20.40;;;;;;;14.41;98.91;102063.38;5072265;28;20035;-78
2022/08/30 05:48:33;;;;;;;26.55;19.63;;;;;;;14.44;99.01;102060.59;5053683;28;20059;-73
2022/08/30 05:51:04;;;;;;;28.70;19.75;;;;;;;14.70;98.18;102088.50;5072019;28;20020;-71
2022/08/30 05:53:30;;;;;;;25.75;18.10;;;;;;;14.84;97.55;102079.84;5072766;28;20032;-72
2022/08/30 05:55:55;;;;;;;25.40;18.52;;;;;;;14.83;96.25;102070.38;5071841;28;20032;-71
2022/08/30 05:58:21;;;;;;;23.20;17.38;;;;;;;14.89;96.01;102075.22;5076041;28;20041;-72
2022/08/30 06:00:46;;;;;;;27.02;18.38;;;;;;;14.95;95.88;102082.66;5076022;28;20032;-71
2022/08/30 06:03:11;;;;;;;30.73;18.77;;;;;;;15.03;95.89;102079.56;5075854;28;20052;-71
2022/08/30 06:05:37;;;;;;;25.63;18.48;;;;;;;15.11;95.22;102080.75;5058064;28;20021;-72
2022/08/30 06:08:03;;;;;;;26.73;17.67;;;;;;;15.14;94.89;102080.59;5075781;28;20024;-74
2022/08/30 06:10:28;;;;;;;25.83;18.25;;;;;;;15.23;94.52;102079.16;5075596;28;20050;-74
2022/08/30 06:12:53;;;;;;;22.88;16.50;;;;;;;15.28;93.84;102084.09;5075828;28;20024;-73
2022/08/30 06:15:18;;;;;;;24.20;17.55;;;;;;;15.33;94.02;102076.81;5075577;28;20503;-77
2022/08/30 06:17:44;;;;;;;22.05;16.75;;;;;;;16.06;91.42;102087.75;5057894;28;20052;-74
2022/08/30 06:20:10;;;;;;;22.25;17.00;;;;;;;16.96;87.59;102078.19;5075649;28;20020;-73
2022/08/30 06:22:37;;;;;;;21.23;15.80;;;;;;;18.06;81.68;102071.03;5075614;28;20461;-73
2022/08/30 06:25:03;;;;;;;22.85;14.60;;;;;;;19.20;76.13;102077.91;5057617;28;20115;-79
2022/08/30 06:27:30;;;;;;;20.10;13.85;;;;;;;19.90;71.95;102065.31;5075698;28;20116;-79
2022/08/30 06:29:55;;;;;;;17.73;13.23;;;;;;;20.49;69.35;102062.94;5075438;28;20054;-78
2022/08/30 06:32:21;;;;;;;19.30;11.80;;;;;;;20.78;67.20;102072.72;5075545;28;20032;-79
2022/08/30 06:34:47;;;;;;;15.80;12.45;;;;;;;20.89;66.23;102076.06;5075300;28;20358;-75
2022/08/30 06:37:12;;;;;;;15.45;11.05;;;;;;;21.22;65.25;102076.69;5075066;28;20031;-77
2022/08/30 06:39:38;;;;;;;15.65;10.82;;;;;;;21.19;63.65;102072.56;5075481;28;20035;-77
2022/08/30 06:42:03;;;;;;;10.50;6.85;;;;;;;21.55;64.65;102069.47;5075367;28;20461;-78
2022/08/30 06:44:29;;;;;;;15.20;10.10;;;;;;;21.86;61.94;102046.47;5075444;28;20039;-83
2022/08/30 06:46:54;;;;;;;15.02;10.43;;;;;;;22.54;60.27;102073.47;5075273;28;20021;-87
2022/08/30 06:49:20;;;;;;;13.82;10.10;;;;;;;22.55;58.66;102061.97;5075133;28;20048;-85
2022/08/30 06:51:45;;;;;;;16.80;11.32;;;;;;;22.33;58.33;102071.88;5057660;28;20353;-88
2022/08/30 06:54:11;;;;;;;15.13;10.85;;;;;;;22.49;58.69;102075.69;5075137;28;20043;-90
2022/08/30 06:56:37;;;;;;;13.98;9.60;;;;;;;22.51;57.75;102057.94;5074824;28;20028;-88
2022/08/30 06:59:03;;;;;;;13.95;10.13;;;;;;;22.71;57.71;102058.69;5075032;28;20040;-89
2022/08/30 07:01:29;;;;;;;14.60;10.15;;;;;;;22.64;57.40;102065.53;5057080;28;20449;-87
2022/08/30 07:03:55;;;;;;;12.73;10.45;;;;;;;22.57;57.78;102071.38;5075031;28;20048;-83
2022/08/30 07:06:23;;;;;;;12.98;10.13;;;;;;;22.37;57.63;102064.50;5075002;28;20048;-77
2022/08/30 07:08:49;;;;;;;14.65;9.95;;;;;;;21.81;59.03;102074.97;5040585;28;20094;-84
2022/08/30 07:11:27;;;;;;;16.48;10.65;;;;;;;20.91;62.43;102075.94;5074809;28;20115;-85
2022/08/30 07:13:53;;;;;;;12.55;10.50;;;;;;;20.01;64.95;102083.59;5074766;28;20028;-87
2022/08/30 07:16:18;;;;;;;14.23;10.70;;;;;;;19.24;67.44;102059.31;5074457;28;20106;-86
2022/08/30 07:18:49;;;;;;;13.75;10.60;;;;;;;18.90;70.27;102065.47;5074776;28;20020;-87
2022/08/30 07:21:18;;;;;;;15.30;10.43;;;;;;;18.81;70.97;102089.72;5074512;28;20033;-89
2022/08/30 07:23:47;;;;;;;13.40;10.77;;;;;;;18.62;72.10;102090.28;5074495;28;20029;-85
2022/08/30 07:26:14;;;;;;;18.83;9.57;;;;;;;18.49;72.72;102086.97;5074320;28;20021;-84
2022/08/30 07:28:42;;;;;;;15.05;11.13;;;;;;;18.35;74.22;102090.59;5074278;28;20032;-85
2022/08/30 07:31:09;;;;;;;14.38;10.25;;;;;;;18.37;74.22;102077.41;5056026;28;20076;-85
2022/08/30 07:33:35;;;;;;;14.02;10.25;;;;;;;18.38;73.48;102088.69;5074573;28;20024;-80
2022/08/30 07:36:00;;;;;;;12.23;9.82;;;;;;;18.28;73.86;102078.09;5074130;28;20028;-81
2022/08/30 07:38:26;;;;;;;12.85;9.68;;;;;;;18.31;73.92;102083.13;5074450;28;20032;-78
2022/08/30 07:40:52;;;;;;;13.73;9.95;;;;;;;18.45;74.55;102095.97;5074200;28;20017;-80
2022/08/30 07:43:17;;;;;;;15.68;10.10;;;;;;;18.55;74.25;102091.69;5073999;28;20119;-82
2022/08/30 07:45:43;;;;;;;13.25;9.60;;;;;;;18.58;73.71;102077.53;5074145;28;20029;-76
2022/08/30 07:48:10;;;;;;;11.52;9.15;;;;;;;18.77;72.99;102096.13;5073952;28;20028;-85
2022/08/30 07:50:36;;;;;;;14.27;8.48;;;;;;;18.79;72.62;102083.78;5073886;28;20044;-81
2022/08/30 07:53:02;;;;;;;12.05;8.63;;;;;;;18.84;72.04;102093.88;5073955;28;20059;-87
2022/08/30 07:55:27;;;;;;;10.98;8.15;;;;;;;18.76;71.76;102078.78;5073831;28;20384;-83
2022/08/30 07:57:53;;;;;;;11.40;7.63;;;;;;;18.93;71.03;102098.41;5073537;28;20063;-87
2022/08/30 08:00:19;;;;;;;11.73;7.13;;;;;;;18.99;70.08;102097.94;5073817;28;20021;-87
2022/08/30 08:02:44;;;;;;;13.23;7.72;;;;;;;19.01;69.79;102092.56;5073796;28;20486;-85
2022/08/30 08:05:10;;;;;;;10.35;6.75;;;;;;;19.05;70.48;102086.13;5073693;28;20056;-75
2022/08/30 08:07:35;;;;;;;9.15;6.22;;;;;;;19.20;70.50;102093.63;5073671;28;20110;-86
2022/08/30 08:10:00;;;;;;;10.20;6.70;;;;;;;19.24;69.36;102080.28;5075140;28;20048;-91
2022/08/30 08:12:26;;;;;;;13.95;5.75;;;;;;;19.45;70.29;102097.72;5074218;28;20020;-88
2022/08/30 08:14:52;;;;;;;12.13;5.82;;;;;;;19.47;68.86;102095.00;5074709;28;20111;-85
2022/08/30 08:17:18;;;;;;;9.55;6.13;;;;;;;19.42;68.48;102102.38;5074582;28;20032;-90
2022/08/30 08:19:43;;;;;;;9.82;6.13;;;;;;;19.49;68.06;102098.31;5073484;28;20021;-89
2022/08/30 08:22:09;;;;;;;9.68;5.53;;;;;;;19.53;67.23;102086.63;5059162;28;20097;-86
2022/08/30 08:24:34;;;;;;;10.00;5.32;;;;;;;19.68;66.57;102095.91;5078260;28;20024;-79
2022/08/30 08:27:00;;;;;;;8.50;5.00;;;;;;;19.74;66.19;102094.56;5075016;28;20498;-90
2022/08/30 08:29:26;;;;;;;7.75;4.63;;;;;;;19.84;66.50;102092.84;5057047;28;20063;-89
2022/08/30 08:31:52;;;;;;;8.45;5.43;;;;;;;19.96;65.55;102085.75;5056721;28;20028;-87
2022/08/30 08:34:21;;;;;;;8.80;4.90;;;;;;;20.13;65.67;102086.97;5073767;28;20032;-84
2022/08/30 08:36:47;;;;;;;9.20;4.72;;;;;;;20.28;64.86;102083.09;5072940;28;20027;-76
2022/08/30 08:39:13;;;;;;;9.65;4.38;;;;;;;20.61;65.62;102103.03;5072936;28;20033;-77
2022/08/30 08:41:38;;;;;;;9.70;5.30;;;;;;;20.65;64.26;102101.84;5072808;28;20099;-86
2022/08/30 08:44:27;;;;;;;10.02;5.40;;;;;;;20.39;63.19;102072.50;5072908;28;20461;-83
2022/08/30 08:47:05;;;;;;;9.02;4.90;;;;;;;20.33;63.47;102105.34;5054916;28;20020;-75
2022/08/30 08:49:34;;;;;;;12.65;5.75;;;;;;;20.24;63.15;102098.22;5072743;28;20048;-75
2022/08/30 08:54:57;;;;;;;11.25;5.55;;;;;;;20.20;62.62;102081.09;5073152;28;20086;-86
2022/08/30 08:57:23;;;;;;;8.43;5.00;;;;;;;20.53;63.98;102111.56;5072526;28;20033;-83
2022/08/30 08:59:52;;;;;;;9.60;4.97;;;;;;;20.51;62.09;102103.00;5072950;28;20062;-76
2022/08/30 09:02:28;;;;;;;7.38;4.18;;;;;;;20.73;63.85;102098.53;5055413;28;20032;-75
2022/08/30 09:04:58;;;;;;;10.43;4.63;;;;;;;20.87;63.55;102106.06;5072995;28;20031;-79
2022/08/30 09:07:29;;;;;;;9.48;5.22;;;;;;;21.04;60.70;102120.34;5073093;28;20442;-75
2022/08/30 09:09:56;;;;;;;9.05;5.05;;;;;;;21.06;62.20;102111.38;5072317;28;20024;-86
2022/08/30 09:12:22;;;;;;;9.57;4.55;;;;;;;21.28;60.92;102114.78;5072706;28;20463;-75
2022/08/30 09:14:52;;;;;;;11.02;4.43;;;;;;;21.52;61.00;102119.66;5072842;28;20029;-76
2022/08/30 09:17:20;;;;;;;9.15;4.25;;;;;;;21.75;59.40;102111.38;5073714;28;20024;-80
2022/08/30 09:19:51;;;;;;;7.68;4.00;;;;;;;21.99;58.59;102110.94;5073439;28;20097;-91
2022/08/30 09:22:25;;;;;;;;;;;;;;;22.18;58.90;102117.19;5074277;28;20484;-93
2022/08/30 09:25:11;;;;;;;9.95;4.50;;;;;;;21.81;57.03;102094.19;5073559;28;19968;-87
2022/08/30 09:27:37;;;;;;;9.85;4.63;;;;;;;21.79;57.54;102114.56;5073211;28;20104;-77
2022/08/30 09:30:14;;;;;;;6.70;3.60;;;;;;;21.73;57.38;102113.31;5054518;28;20116;-81
2022/08/30 09:32:53;;;;;;;8.52;3.75;;;;;;;21.63;56.70;102112.50;5075251;28;20056;-87
2022/08/30 09:35:45;;;;;;;8.90;3.58;;;;;;;21.63;57.27;102115.13;5076695;28;20036;-76
2022/08/30 09:38:25;;;;;;;8.10;3.38;;;;;;;21.48;56.99;102105.97;5068172;28;20040;-79
2022/08/30 09:40:56;;;;;;;7.30;3.33;;;;;;;21.37;57.20;102112.16;5076609;28;20082;-78
2022/08/30 09:43:22;;;;;;;6.28;3.40;;;;;;;21.32;56.87;102098.59;5076240;28;20099;-76
2022/08/30 09:46:05;;;;;;;8.75;3.83;;;;;;;21.42;57.25;102120.47;5076292;28;20029;-83
2022/08/30 09:48:41;;;;;;;4.90;3.33;;;;;;;21.48;57.04;102121.72;5074785;28;20147;-80
2022/08/30 09:51:09;;;;;;;10.57;3.38;;;;;;;21.51;56.71;102120.63;5076737;28;20070;-82
2022/08/30 09:54:04;;;;;;;8.10;3.17;;;;;;;21.58;57.13;102108.59;5058311;28;20025;-78
2022/08/30 09:56:39;;;;;;;6.93;2.75;;;;;;;21.79;57.60;102111.09;5013867;28;20104;-76
2022/08/30 09:59:10;;;;;;;8.88;3.22;;;;;;;22.00;56.55;102107.34;4997641;28;20030;-86
2022/08/30 10:01:42;;;;;;;6.97;2.75;;;;;;;22.11;55.69;102109.03;5013465;28;20045;-89
2022/08/30 10:04:14;;;;;;;;;;;;;;;22.22;56.05;102110.66;5013503;28;20021;-75
2022/08/30 10:06:51;;;;;;;8.50;3.30;;;;;;;22.24;54.98;102109.56;5013938;28;20357;-74
2022/08/30 10:10:12;;;;;;;9.55;3.78;;;;;;;22.15;54.75;102105.16;5013453;28;20485;-73
2022/08/30 10:13:00;;;;;;;8.10;3.13;;;;;;;22.19;53.67;102111.78;4974722;28;20514;-82
2022/08/30 10:15:39;;;;;;;9.52;3.35;;;;;;;22.38;54.06;102120.63;4974506;28;20042;-79
2022/08/30 10:18:11;;;;;;;8.07;3.33;;;;;;;22.49;53.35;102105.47;4974715;28;20039;-85
2022/08/30 10:21:00;;;;;;;9.07;3.50;;;;;;;22.77;53.61;102116.06;4974723;28;20135;-77
2022/08/30 10:23:34;;;;;;;9.73;3.35;;;;;;;22.96;52.32;102097.56;4974613;28;20212;-78
2022/08/30 10:26:30;;;;;;;7.57;3.22;;;;;;;23.30;51.75;102110.94;4974313;28;20097;-78
2022/08/30 10:29:10;;;;;;;8.25;2.83;;;;;;;23.56;50.84;102100.50;4974014;28;20035;-82
2022/08/30 10:31:53;;;;;;;12.27;3.55;;;;;;;23.69;49.88;102089.59;4974325;28;20109;-75
2022/08/30 10:34:38;;;;;;;7.10;3.03;;;;;;;23.68;49.93;102077.38;5011199;28;20044;-78
2022/08/30 10:37:08;;;;;;;9.77;3.00;;;;;;;23.73;48.52;102098.88;5013989;28;20385;-76
2022/08/30 10:39:45;;;;;;;7.20;3.22;;;;;;;23.70;48.99;102099.19;5013608;28;20502;-75
2022/08/30 10:42:24;;;;;;;11.15;3.88;;;;;;;23.46;49.34;102111.13;5012901;28;20125;-80
2022/08/30 10:45:14;;;;;;;9.40;3.42;;;;;;;23.19;49.22;102095.34;5013401;28;20088;-81
2022/08/30 10:47:48;;;;;;;7.53;2.53;;;;;;;23.18;50.23;102093.69;5029023;28;20036;-81
2022/08/30 10:50:42;;;;;;;8.82;3.00;;;;;;;23.12;50.42;102097.75;5074860;28;20090;-79
2022/08/30 10:53:16;;;;;;;5.65;3.13;;;;;;;22.94;50.15;102099.53;5073007;28;20044;-84
2022/08/30 10:55:50;;;;;;;6.60;2.80;;;;;;;22.93;49.51;102089.97;5074735;28;20025;-80
2022/08/30 10:58:17;;;;;;;8.68;2.75;;;;;;;22.77;49.57;102090.53;5074924;28;20108;-78
2022/08/30 11:00:59;;;;;;;7.20;2.38;;;;;;;22.86;51.63;102084.44;5074699;28;20024;-83
2022/08/30 11:03:38;;;;;;;7.72;2.97;;;;;;;22.89;50.22;102097.31;5056810;28;20392;-84
2022/08/30 11:06:23;;;;;;;10.20;3.38;;;;;;;22.94;50.22;102086.34;5074949;28;20435;-88
2022/08/30 11:09:01;;;;;;;8.85;2.67;;;;;;;22.96;49.90;102092.28;5074928;28;20897;-80
2022/08/30 11:11:38;;;;;;;10.15;3.53;;;;;;;22.89;49.78;102093.84;5074847;28;20384;-87
2022/08/30 11:14:07;;;;;;;5.00;2.53;;;;;;;23.03;50.32;102087.28;5074502;28;20025;-86
2022/08/30 11:16:39;;;;;;;5.85;3.13;;;;;;;23.22;51.01;102084.53;5074588;28;20122;-78
2022/08/30 11:19:22;;;;;;;6.57;3.15;;;;;;;23.28;50.06;102069.91;5056581;28;20032;-76
2022/08/30 11:21:48;;;;;;;6.32;2.53;;;;;;;23.17;49.06;102052.50;5074546;28;20035;-76